Terminal Aerodrome Forecast
Issued by NWS Cleveland, OH

Home | Current Version | Previous Version | Text Only | Print | Product List | Glossary On
Versions: 1 2 3 4 5 6 7 8 9 10 11 12 13 14 15 16 17 18 19
000
FTUS41 KCLE 292334
TAFYNG
TAF
KYNG 292334Z 3000/3024 05003KT P6SM SCT040 OVC120
     FM300400 12003KT 6SM BR SCT035 BKN120
      TEMPO 3006/3009 3SM BR BKN035
     FM300900 14003KT 2SM BR SCT006 BKN012
      TEMPO 3009/3013 3/4SM BR OVC006
     FM301500 20004KT P6SM SCT025 BKN080
     FM301800 22006KT P6SM VCTS BKN035CB=

USA.gov is the U.S. government's official web portal to all federal, state and local government web resources and services.